sensor_id;sensor_type;location;lat;lon;timestamp;P1;durP1;ratioP1;P2;durP2;ratioP2
65315;SDS011;51920;53.952;10.292;2024-03-02T00:01:18;40.50;;;16.42;;
65315;SDS011;51920;53.952;10.292;2024-03-02T00:03:45;37.55;;;16.08;;
65315;SDS011;51920;53.952;10.292;2024-03-02T00:06:12;43.83;;;17.05;;
65315;SDS011;51920;53.952;10.292;2024-03-02T00:08:39;40.45;;;16.67;;
65315;SDS011;51920;53.952;10.292;2024-03-02T00:11:06;42.13;;;16.03;;
65315;SDS011;51920;53.952;10.292;2024-03-02T00:13:34;38.58;;;16.40;;
65315;SDS011;51920;53.952;10.292;2024-03-02T00:16:02;38.90;;;17.08;;
65315;SDS011;51920;53.952;10.292;2024-03-02T00:21:00;37.95;;;16.48;;
65315;SDS011;51920;53.952;10.292;2024-03-02T00:23:29;40.77;;;16.80;;
65315;SDS011;51920;53.952;10.292;2024-03-02T00:25:57;42.72;;;17.08;;
65315;SDS011;51920;53.952;10.292;2024-03-02T00:28:27;43.33;;;18.20;;
65315;SDS011;51920;53.952;10.292;2024-03-02T00:33:35;41.90;;;17.30;;
65315;SDS011;51920;53.952;10.292;2024-03-02T00:36:04;40.47;;;17.30;;
65315;SDS011;51920;53.952;10.292;2024-03-02T00:38:31;40.80;;;16.60;;
65315;SDS011;51920;53.952;10.292;2024-03-02T00:41:00;40.55;;;17.20;;
65315;SDS011;51920;53.952;10.292;2024-03-02T00:46:22;46.97;;;18.15;;
65315;SDS011;51920;53.952;10.292;2024-03-02T00:48:51;40.57;;;16.60;;
65315;SDS011;51920;53.952;10.292;2024-03-02T00:51:21;40.15;;;16.80;;
65315;SDS011;51920;53.952;10.292;2024-03-02T00:53:54;47.65;;;17.95;;
65315;SDS011;51920;53.952;10.292;2024-03-02T00:56:23;46.05;;;17.73;;
65315;SDS011;51920;53.952;10.292;2024-03-02T00:58:50;42.75;;;18.10;;
65315;SDS011;51920;53.952;10.292;2024-03-02T01:01:18;43.13;;;17.47;;
65315;SDS011;51920;53.952;10.292;2024-03-02T01:03:46;44.60;;;17.50;;
65315;SDS011;51920;53.952;10.292;2024-03-02T01:06:13;45.38;;;18.00;;
65315;SDS011;51920;53.952;10.292;2024-03-02T01:08:40;43.50;;;17.70;;
65315;SDS011;51920;53.952;10.292;2024-03-02T01:11:07;46.30;;;17.83;;
65315;SDS011;51920;53.952;10.292;2024-03-02T01:13:34;46.40;;;17.67;;
65315;SDS011;51920;53.952;10.292;2024-03-02T01:16:01;43.63;;;18.33;;
65315;SDS011;51920;53.952;10.292;2024-03-02T01:18:29;45.08;;;18.05;;
65315;SDS011;51920;53.952;10.292;2024-03-02T01:20:56;47.15;;;19.35;;
65315;SDS011;51920;53.952;10.292;2024-03-02T01:23:23;49.90;;;18.73;;
65315;SDS011;51920;53.952;10.292;2024-03-02T01:25:51;45.47;;;18.30;;
65315;SDS011;51920;53.952;10.292;2024-03-02T01:28:18;45.50;;;18.50;;
65315;SDS011;51920;53.952;10.292;2024-03-02T01:30:47;50.22;;;18.95;;
65315;SDS011;51920;53.952;10.292;2024-03-02T01:33:16;45.15;;;19.48;;
65315;SDS011;51920;53.952;10.292;2024-03-02T01:35:44;48.38;;;19.35;;
65315;SDS011;51920;53.952;10.292;2024-03-02T01:38:11;48.03;;;18.60;;
65315;SDS011;51920;53.952;10.292;2024-03-02T01:40:38;47.63;;;19.15;;
65315;SDS011;51920;53.952;10.292;2024-03-02T01:43:06;45.13;;;18.88;;
65315;SDS011;51920;53.952;10.292;2024-03-02T01:45:34;48.25;;;18.88;;
65315;SDS011;51920;53.952;10.292;2024-03-02T01:48:02;47.58;;;19.10;;
65315;SDS011;51920;53.952;10.292;2024-03-02T01:50:31;50.33;;;19.60;;
65315;SDS011;51920;53.952;10.292;2024-03-02T01:53:00;50.13;;;19.33;;
65315;SDS011;51920;53.952;10.292;2024-03-02T01:55:29;49.28;;;19.38;;
65315;SDS011;51920;53.952;10.292;2024-03-02T01:57:57;51.25;;;18.88;;
65315;SDS011;51920;53.952;10.292;2024-03-02T02:00:24;46.78;;;18.27;;
65315;SDS011;51920;53.952;10.292;2024-03-02T02:02:53;46.77;;;18.03;;
65315;SDS011;51920;53.952;10.292;2024-03-02T02:05:20;45.83;;;18.35;;
65315;SDS011;51920;53.952;10.292;2024-03-02T02:07:47;42.92;;;18.02;;
65315;SDS011;51920;53.952;10.292;2024-03-02T02:10:14;45.38;;;18.50;;
65315;SDS011;51920;53.952;10.292;2024-03-02T02:12:41;46.75;;;18.90;;
65315;SDS011;51920;53.952;10.292;2024-03-02T02:15:21;49.77;;;18.50;;
65315;SDS011;51920;53.952;10.292;2024-03-02T02:17:52;45.05;;;18.55;;
65315;SDS011;51920;53.952;10.292;2024-03-02T02:20:19;46.22;;;18.95;;
65315;SDS011;51920;53.952;10.292;2024-03-02T02:22:59;43.47;;;17.95;;
65315;SDS011;51920;53.952;10.292;2024-03-02T02:25:28;46.00;;;18.27;;
65315;SDS011;51920;53.952;10.292;2024-03-02T02:27:56;47.03;;;18.30;;
65315;SDS011;51920;53.952;10.292;2024-03-02T02:30:25;47.92;;;19.05;;
65315;SDS011;51920;53.952;10.292;2024-03-02T02:32:53;49.15;;;18.42;;
65315;SDS011;51920;53.952;10.292;2024-03-02T02:35:20;47.50;;;18.17;;
65315;SDS011;51920;53.952;10.292;2024-03-02T02:37:47;45.05;;;19.20;;
65315;SDS011;51920;53.952;10.292;2024-03-02T02:40:16;46.57;;;17.73;;
65315;SDS011;51920;53.952;10.292;2024-03-02T02:42:45;42.63;;;17.80;;
65315;SDS011;51920;53.952;10.292;2024-03-02T02:45:12;44.03;;;18.70;;
65315;SDS011;51920;53.952;10.292;2024-03-02T02:47:41;49.05;;;18.98;;
65315;SDS011;51920;53.952;10.292;2024-03-02T02:50:09;47.08;;;19.65;;
65315;SDS011;51920;53.952;10.292;2024-03-02T02:52:37;43.90;;;17.60;;
65315;SDS011;51920;53.952;10.292;2024-03-02T02:55:07;44.65;;;18.50;;
65315;SDS011;51920;53.952;10.292;2024-03-02T02:57:35;44.92;;;18.65;;
65315;SDS011;51920;53.952;10.292;2024-03-02T03:00:08;49.92;;;18.98;;
65315;SDS011;51920;53.952;10.292;2024-03-02T03:02:43;49.65;;;18.92;;
65315;SDS011;51920;53.952;10.292;2024-03-02T03:05:14;49.20;;;18.67;;
65315;SDS011;51920;53.952;10.292;2024-03-02T03:07:41;48.05;;;18.50;;
65315;SDS011;51920;53.952;10.292;2024-03-02T03:10:10;48.72;;;20.00;;
65315;SDS011;51920;53.952;10.292;2024-03-02T03:12:37;46.17;;;18.70;;
65315;SDS011;51920;53.952;10.292;2024-03-02T03:15:04;48.15;;;18.55;;
65315;SDS011;51920;53.952;10.292;2024-03-02T03:17:33;46.60;;;18.63;;
65315;SDS011;51920;53.952;10.292;2024-03-02T03:20:01;43.78;;;19.20;;
65315;SDS011;51920;53.952;10.292;2024-03-02T03:22:30;44.38;;;18.27;;
65315;SDS011;51920;53.952;10.292;2024-03-02T03:24:58;46.88;;;19.10;;
65315;SDS011;51920;53.952;10.292;2024-03-02T03:27:26;43.67;;;18.58;;
65315;SDS011;51920;53.952;10.292;2024-03-02T03:29:53;45.43;;;18.93;;
65315;SDS011;51920;53.952;10.292;2024-03-02T03:32:21;46.95;;;18.98;;
65315;SDS011;51920;53.952;10.292;2024-03-02T03:34:48;46.78;;;18.85;;
65315;SDS011;51920;53.952;10.292;2024-03-02T03:37:15;51.58;;;18.70;;
65315;SDS011;51920;53.952;10.292;2024-03-02T03:39:42;46.78;;;18.45;;
65315;SDS011;51920;53.952;10.292;2024-03-02T03:42:09;45.87;;;18.33;;
65315;SDS011;51920;53.952;10.292;2024-03-02T03:44:36;47.05;;;18.40;;
65315;SDS011;51920;53.952;10.292;2024-03-02T03:47:03;46.63;;;18.80;;
65315;SDS011;51920;53.952;10.292;2024-03-02T03:49:30;51.53;;;19.73;;
65315;SDS011;51920;53.952;10.292;2024-03-02T03:51:57;45.75;;;18.77;;
65315;SDS011;51920;53.952;10.292;2024-03-02T03:54:24;49.90;;;19.03;;
65315;SDS011;51920;53.952;10.292;2024-03-02T03:56:51;48.17;;;18.33;;
65315;SDS011;51920;53.952;10.292;2024-03-02T03:59:18;45.72;;;19.05;;
65315;SDS011;51920;53.952;10.292;2024-03-02T04:01:44;47.20;;;18.48;;
65315;SDS011;51920;53.952;10.292;2024-03-02T04:04:12;47.33;;;18.63;;
65315;SDS011;51920;53.952;10.292;2024-03-02T04:06:39;47.27;;;18.90;;
65315;SDS011;51920;53.952;10.292;2024-03-02T04:09:06;47.78;;;18.60;;
65315;SDS011;51920;53.952;10.292;2024-03-02T04:11:33;43.97;;;18.38;;
65315;SDS011;51920;53.952;10.292;2024-03-02T04:14:00;47.20;;;18.75;;
65315;SDS011;51920;53.952;10.292;2024-03-02T04:16:27;50.60;;;19.15;;
65315;SDS011;51920;53.952;10.292;2024-03-02T04:18:55;46.57;;;19.03;;
65315;SDS011;51920;53.952;10.292;2024-03-02T04:21:22;47.45;;;18.80;;
65315;SDS011;51920;53.952;10.292;2024-03-02T04:23:49;50.03;;;18.83;;
65315;SDS011;51920;53.952;10.292;2024-03-02T04:26:15;45.67;;;18.65;;
65315;SDS011;51920;53.952;10.292;2024-03-02T04:28:46;43.97;;;18.58;;
65315;SDS011;51920;53.952;10.292;2024-03-02T04:31:14;48.67;;;18.87;;
65315;SDS011;51920;53.952;10.292;2024-03-02T04:33:42;45.83;;;18.98;;
65315;SDS011;51920;53.952;10.292;2024-03-02T04:36:09;50.05;;;18.70;;
65315;SDS011;51920;53.952;10.292;2024-03-02T04:38:36;47.55;;;18.02;;
65315;SDS011;51920;53.952;10.292;2024-03-02T04:41:04;48.30;;;18.70;;
65315;SDS011;51920;53.952;10.292;2024-03-02T04:43:34;46.97;;;18.77;;
65315;SDS011;51920;53.952;10.292;2024-03-02T04:46:01;46.05;;;18.73;;
65315;SDS011;51920;53.952;10.292;2024-03-02T04:48:28;49.65;;;19.48;;
65315;SDS011;51920;53.952;10.292;2024-03-02T04:50:56;50.50;;;18.92;;
65315;SDS011;51920;53.952;10.292;2024-03-02T04:53:23;48.85;;;19.45;;
65315;SDS011;51920;53.952;10.292;2024-03-02T04:55:49;48.03;;;18.77;;
65315;SDS011;51920;53.952;10.292;2024-03-02T04:58:22;48.45;;;18.73;;
65315;SDS011;51920;53.952;10.292;2024-03-02T05:00:49;49.15;;;18.88;;
65315;SDS011;51920;53.952;10.292;2024-03-02T05:03:16;50.33;;;19.42;;
65315;SDS011;51920;53.952;10.292;2024-03-02T05:05:43;47.78;;;19.10;;
65315;SDS011;51920;53.952;10.292;2024-03-02T05:08:11;47.67;;;18.67;;
65315;SDS011;51920;53.952;10.292;2024-03-02T05:10:38;46.80;;;19.60;;
65315;SDS011;51920;53.952;10.292;2024-03-02T05:13:05;50.05;;;19.25;;
65315;SDS011;51920;53.952;10.292;2024-03-02T05:15:32;46.35;;;19.85;;
65315;SDS011;51920;53.952;10.292;2024-03-02T05:17:59;49.38;;;20.02;;
65315;SDS011;51920;53.952;10.292;2024-03-02T05:20:26;45.60;;;18.33;;
65315;SDS011;51920;53.952;10.292;2024-03-02T05:22:53;48.42;;;18.77;;
65315;SDS011;51920;53.952;10.292;2024-03-02T05:25:20;50.35;;;19.75;;
65315;SDS011;51920;53.952;10.292;2024-03-02T05:27:47;47.83;;;20.00;;
65315;SDS011;51920;53.952;10.292;2024-03-02T05:30:14;47.65;;;19.23;;
65315;SDS011;51920;53.952;10.292;2024-03-02T05:32:41;47.67;;;19.33;;
65315;SDS011;51920;53.952;10.292;2024-03-02T05:35:08;49.30;;;19.13;;
65315;SDS011;51920;53.952;10.292;2024-03-02T05:37:35;51.42;;;19.98;;
65315;SDS011;51920;53.952;10.292;2024-03-02T05:40:02;47.35;;;18.98;;
65315;SDS011;51920;53.952;10.292;2024-03-02T05:42:29;50.55;;;20.58;;
65315;SDS011;51920;53.952;10.292;2024-03-02T05:44:56;49.67;;;20.67;;
65315;SDS011;51920;53.952;10.292;2024-03-02T05:47:23;52.22;;;20.27;;
65315;SDS011;51920;53.952;10.292;2024-03-02T05:49:50;49.28;;;19.85;;
65315;SDS011;51920;53.952;10.292;2024-03-02T05:52:17;42.95;;;18.95;;
65315;SDS011;51920;53.952;10.292;2024-03-02T05:54:44;49.33;;;19.60;;
65315;SDS011;51920;53.952;10.292;2024-03-02T05:57:10;47.80;;;19.33;;
65315;SDS011;51920;53.952;10.292;2024-03-02T05:59:48;45.67;;;19.60;;
65315;SDS011;51920;53.952;10.292;2024-03-02T06:02:15;47.30;;;19.55;;
65315;SDS011;51920;53.952;10.292;2024-03-02T06:04:42;47.22;;;19.45;;
65315;SDS011;51920;53.952;10.292;2024-03-02T06:07:09;48.30;;;19.83;;
65315;SDS011;51920;53.952;10.292;2024-03-02T06:09:36;47.33;;;18.47;;
65315;SDS011;51920;53.952;10.292;2024-03-02T06:12:04;50.17;;;19.77;;
65315;SDS011;51920;53.952;10.292;2024-03-02T06:14:31;48.88;;;19.50;;
65315;SDS011;51920;53.952;10.292;2024-03-02T06:16:58;45.72;;;18.98;;
65315;SDS011;51920;53.952;10.292;2024-03-02T06:19:26;47.08;;;19.02;;
65315;SDS011;51920;53.952;10.292;2024-03-02T06:21:54;48.83;;;19.87;;
65315;SDS011;51920;53.952;10.292;2024-03-02T06:24:21;46.17;;;18.55;;
65315;SDS011;51920;53.952;10.292;2024-03-02T06:26:47;47.40;;;19.40;;
65315;SDS011;51920;53.952;10.292;2024-03-02T06:29:14;52.50;;;19.88;;
65315;SDS011;51920;53.952;10.292;2024-03-02T06:31:41;49.83;;;19.58;;
65315;SDS011;51920;53.952;10.292;2024-03-02T06:34:08;46.97;;;19.27;;
65315;SDS011;51920;53.952;10.292;2024-03-02T06:36:35;46.75;;;20.15;;
65315;SDS011;51920;53.952;10.292;2024-03-02T06:39:02;47.58;;;19.98;;
65315;SDS011;51920;53.952;10.292;2024-03-02T06:41:29;50.25;;;20.55;;
65315;SDS011;51920;53.952;10.292;2024-03-02T06:43:56;47.38;;;19.05;;
65315;SDS011;51920;53.952;10.292;2024-03-02T06:46:26;46.60;;;18.97;;
65315;SDS011;51920;53.952;10.292;2024-03-02T06:48:56;47.60;;;19.02;;
65315;SDS011;51920;53.952;10.292;2024-03-02T06:51:23;49.30;;;20.67;;
65315;SDS011;51920;53.952;10.292;2024-03-02T06:53:49;47.95;;;19.90;;
65315;SDS011;51920;53.952;10.292;2024-03-02T06:56:16;50.88;;;20.33;;
65315;SDS011;51920;53.952;10.292;2024-03-02T06:58:43;44.70;;;19.27;;
65315;SDS011;51920;53.952;10.292;2024-03-02T07:01:10;50.25;;;19.73;;
65315;SDS011;51920;53.952;10.292;2024-03-02T07:03:37;44.97;;;19.35;;
65315;SDS011;51920;53.952;10.292;2024-03-02T07:06:05;43.50;;;19.17;;
65315;SDS011;51920;53.952;10.292;2024-03-02T07:08:34;48.35;;;19.67;;
65315;SDS011;51920;53.952;10.292;2024-03-02T07:11:00;44.03;;;18.87;;
65315;SDS011;51920;53.952;10.292;2024-03-02T07:13:27;45.65;;;18.85;;
65315;SDS011;51920;53.952;10.292;2024-03-02T07:15:54;48.88;;;20.42;;
65315;SDS011;51920;53.952;10.292;2024-03-02T07:18:30;45.95;;;19.48;;
65315;SDS011;51920;53.952;10.292;2024-03-02T07:20:57;47.15;;;19.48;;
65315;SDS011;51920;53.952;10.292;2024-03-02T07:23:26;45.00;;;18.27;;
65315;SDS011;51920;53.952;10.292;2024-03-02T07:25:53;44.55;;;18.75;;
65315;SDS011;51920;53.952;10.292;2024-03-02T07:28:26;44.60;;;19.27;;
65315;SDS011;51920;53.952;10.292;2024-03-02T07:31:00;43.22;;;18.70;;
65315;SDS011;51920;53.952;10.292;2024-03-02T07:33:27;42.95;;;19.02;;
65315;SDS011;51920;53.952;10.292;2024-03-02T07:35:54;45.97;;;19.17;;
65315;SDS011;51920;53.952;10.292;2024-03-02T07:38:22;43.72;;;18.65;;
65315;SDS011;51920;53.952;10.292;2024-03-02T07:40:49;45.05;;;19.58;;
65315;SDS011;51920;53.952;10.292;2024-03-02T07:43:17;47.80;;;18.73;;
65315;SDS011;51920;53.952;10.292;2024-03-02T07:45:46;43.33;;;18.40;;
65315;SDS011;51920;53.952;10.292;2024-03-02T07:48:13;42.17;;;18.30;;
65315;SDS011;51920;53.952;10.292;2024-03-02T07:50:41;41.65;;;17.98;;
65315;SDS011;51920;53.952;10.292;2024-03-02T07:53:09;44.67;;;19.17;;
65315;SDS011;51920;53.952;10.292;2024-03-02T07:55:36;42.15;;;18.02;;
65315;SDS011;51920;53.952;10.292;2024-03-02T07:58:03;40.80;;;18.38;;
65315;SDS011;51920;53.952;10.292;2024-03-02T08:00:30;38.60;;;16.53;;
65315;SDS011;51920;53.952;10.292;2024-03-02T08:02:57;39.95;;;17.75;;
65315;SDS011;51920;53.952;10.292;2024-03-02T08:05:24;40.28;;;17.70;;
65315;SDS011;51920;53.952;10.292;2024-03-02T08:07:51;37.85;;;16.58;;
65315;SDS011;51920;53.952;10.292;2024-03-02T08:10:19;42.10;;;18.08;;
65315;SDS011;51920;53.952;10.292;2024-03-02T08:12:46;38.60;;;17.47;;
65315;SDS011;51920;53.952;10.292;2024-03-02T08:15:13;38.42;;;16.05;;
65315;SDS011;51920;53.952;10.292;2024-03-02T08:17:40;38.97;;;17.15;;
65315;SDS011;51920;53.952;10.292;2024-03-02T08:20:11;34.92;;;15.93;;
65315;SDS011;51920;53.952;10.292;2024-03-02T08:22:39;35.45;;;16.00;;
65315;SDS011;51920;53.952;10.292;2024-03-02T08:25:06;36.47;;;16.07;;
65315;SDS011;51920;53.952;10.292;2024-03-02T08:27:34;31.23;;;15.13;;
65315;SDS011;51920;53.952;10.292;2024-03-02T08:30:02;32.38;;;15.45;;
65315;SDS011;51920;53.952;10.292;2024-03-02T08:32:32;33.08;;;14.93;;
65315;SDS011;51920;53.952;10.292;2024-03-02T08:34:59;33.55;;;15.63;;
65315;SDS011;51920;53.952;10.292;2024-03-02T08:37:28;31.83;;;14.77;;
65315;SDS011;51920;53.952;10.292;2024-03-02T08:39:55;32.00;;;15.60;;
65315;SDS011;51920;53.952;10.292;2024-03-02T08:42:22;33.20;;;15.02;;
65315;SDS011;51920;53.952;10.292;2024-03-02T08:44:49;34.13;;;15.00;;
65315;SDS011;51920;53.952;10.292;2024-03-02T08:47:16;32.05;;;15.13;;
65315;SDS011;51920;53.952;10.292;2024-03-02T08:49:43;31.87;;;14.23;;
65315;SDS011;51920;53.952;10.292;2024-03-02T08:52:10;29.65;;;14.02;;
65315;SDS011;51920;53.952;10.292;2024-03-02T08:54:37;30.80;;;13.88;;
65315;SDS011;51920;53.952;10.292;2024-03-02T08:57:04;27.13;;;13.38;;
65315;SDS011;51920;53.952;10.292;2024-03-02T08:59:32;28.35;;;13.32;;
65315;SDS011;51920;53.952;10.292;2024-03-02T09:01:59;32.33;;;13.93;;
65315;SDS011;51920;53.952;10.292;2024-03-02T09:04:26;30.45;;;14.10;;
65315;SDS011;51920;53.952;10.292;2024-03-02T09:06:54;31.15;;;13.38;;
65315;SDS011;51920;53.952;10.292;2024-03-02T09:09:21;26.15;;;13.45;;
65315;SDS011;51920;53.952;10.292;2024-03-02T09:11:47;31.00;;;13.68;;
65315;SDS011;51920;53.952;10.292;2024-03-02T09:14:15;27.30;;;13.07;;
65315;SDS011;51920;53.952;10.292;2024-03-02T09:16:42;29.98;;;13.20;;
65315;SDS011;51920;53.952;10.292;2024-03-02T09:19:09;27.25;;;13.57;;
65315;SDS011;51920;53.952;10.292;2024-03-02T09:21:36;27.92;;;13.10;;
65315;SDS011;51920;53.952;10.292;2024-03-02T09:24:04;23.73;;;12.13;;
65315;SDS011;51920;53.952;10.292;2024-03-02T09:26:31;24.03;;;12.63;;
65315;SDS011;51920;53.952;10.292;2024-03-02T09:28:58;24.02;;;11.88;;
65315;SDS011;51920;53.952;10.292;2024-03-02T09:31:25;24.48;;;12.45;;
65315;SDS011;51920;53.952;10.292;2024-03-02T09:33:52;23.42;;;11.88;;
65315;SDS011;51920;53.952;10.292;2024-03-02T09:36:19;23.85;;;12.32;;
65315;SDS011;51920;53.952;10.292;2024-03-02T09:38:47;21.33;;;12.27;;
65315;SDS011;51920;53.952;10.292;2024-03-02T09:41:14;22.92;;;11.50;;
65315;SDS011;51920;53.952;10.292;2024-03-02T09:43:41;22.23;;;12.05;;
65315;SDS011;51920;53.952;10.292;2024-03-02T09:46:09;25.05;;;12.75;;
65315;SDS011;51920;53.952;10.292;2024-03-02T09:48:37;23.40;;;12.15;;
65315;SDS011;51920;53.952;10.292;2024-03-02T09:51:04;20.63;;;11.90;;
65315;SDS011;51920;53.952;10.292;2024-03-02T09:53:32;22.67;;;12.30;;
65315;SDS011;51920;53.952;10.292;2024-03-02T09:56:00;21.98;;;11.35;;
65315;SDS011;51920;53.952;10.292;2024-03-02T09:58:27;24.92;;;12.38;;
65315;SDS011;51920;53.952;10.292;2024-03-02T10:00:54;25.98;;;12.77;;
65315;SDS011;51920;53.952;10.292;2024-03-02T10:03:22;24.57;;;12.33;;
65315;SDS011;51920;53.952;10.292;2024-03-02T10:05:51;23.15;;;12.48;;
65315;SDS011;51920;53.952;10.292;2024-03-02T10:08:18;23.77;;;12.15;;
65315;SDS011;51920;53.952;10.292;2024-03-02T10:10:45;23.17;;;12.15;;
65315;SDS011;51920;53.952;10.292;2024-03-02T10:13:13;24.45;;;12.82;;
65315;SDS011;51920;53.952;10.292;2024-03-02T10:15:43;23.00;;;12.10;;
65315;SDS011;51920;53.952;10.292;2024-03-02T10:18:10;23.15;;;12.05;;
65315;SDS011;51920;53.952;10.292;2024-03-02T10:20:39;24.23;;;12.40;;
65315;SDS011;51920;53.952;10.292;2024-03-02T10:23:15;28.38;;;12.52;;
65315;SDS011;51920;53.952;10.292;2024-03-02T10:25:43;31.67;;;12.10;;
65315;SDS011;51920;53.952;10.292;2024-03-02T10:28:12;67.20;;;15.40;;
65315;SDS011;51920;53.952;10.292;2024-03-02T10:30:39;22.83;;;11.57;;
65315;SDS011;51920;53.952;10.292;2024-03-02T10:33:06;24.75;;;12.10;;
65315;SDS011;51920;53.952;10.292;2024-03-02T10:35:32;22.77;;;12.13;;
65315;SDS011;51920;53.952;10.292;2024-03-02T10:38:06;24.23;;;12.45;;
65315;SDS011;51920;53.952;10.292;2024-03-02T10:40:33;21.00;;;11.73;;
65315;SDS011;51920;53.952;10.292;2024-03-02T10:43:01;21.35;;;11.20;;
65315;SDS011;51920;53.952;10.292;2024-03-02T10:45:31;23.08;;;11.45;;
65315;SDS011;51920;53.952;10.292;2024-03-02T10:48:00;21.45;;;11.25;;
65315;SDS011;51920;53.952;10.292;2024-03-02T10:50:28;20.27;;;11.07;;
65315;SDS011;51920;53.952;10.292;2024-03-02T10:52:58;20.37;;;10.63;;
65315;SDS011;51920;53.952;10.292;2024-03-02T10:55:24;19.58;;;10.05;;
65315;SDS011;51920;53.952;10.292;2024-03-02T10:57:52;20.17;;;10.75;;
65315;SDS011;51920;53.952;10.292;2024-03-02T11:00:21;19.83;;;10.50;;
65315;SDS011;51920;53.952;10.292;2024-03-02T11:02:57;21.67;;;10.75;;
65315;SDS011;51920;53.952;10.292;2024-03-02T11:05:33;19.67;;;10.43;;
65315;SDS011;51920;53.952;10.292;2024-03-02T11:08:06;20.40;;;10.85;;
65315;SDS011;51920;53.952;10.292;2024-03-02T11:10:38;24.30;;;10.93;;
65315;SDS011;51920;53.952;10.292;2024-03-02T11:13:12;20.10;;;10.88;;
65315;SDS011;51920;53.952;10.292;2024-03-02T11:15:40;21.08;;;10.68;;
65315;SDS011;51920;53.952;10.292;2024-03-02T11:18:10;19.33;;;10.87;;
65315;SDS011;51920;53.952;10.292;2024-03-02T11:20:38;20.98;;;10.95;;
65315;SDS011;51920;53.952;10.292;2024-03-02T11:23:06;21.83;;;10.93;;
65315;SDS011;51920;53.952;10.292;2024-03-02T11:25:35;20.23;;;11.18;;
65315;SDS011;51920;53.952;10.292;2024-03-02T11:28:03;21.50;;;11.35;;
65315;SDS011;51920;53.952;10.292;2024-03-02T11:32:59;19.77;;;10.93;;
65315;SDS011;51920;53.952;10.292;2024-03-02T11:35:26;20.77;;;11.38;;
65315;SDS011;51920;53.952;10.292;2024-03-02T11:37:55;22.38;;;10.93;;
65315;SDS011;51920;53.952;10.292;2024-03-02T11:40:22;20.50;;;11.75;;
65315;SDS011;51920;53.952;10.292;2024-03-02T11:42:49;19.30;;;10.83;;
65315;SDS011;51920;53.952;10.292;2024-03-02T11:45:16;21.77;;;11.20;;
65315;SDS011;51920;53.952;10.292;2024-03-02T11:47:49;20.70;;;10.85;;
65315;SDS011;51920;53.952;10.292;2024-03-02T11:52:59;18.85;;;10.40;;
65315;SDS011;51920;53.952;10.292;2024-03-02T11:55:26;19.50;;;10.87;;
65315;SDS011;51920;53.952;10.292;2024-03-02T11:57:53;20.00;;;10.85;;
65315;SDS011;51920;53.952;10.292;2024-03-02T12:00:20;22.92;;;11.57;;
65315;SDS011;51920;53.952;10.292;2024-03-02T12:02:48;20.17;;;10.98;;
65315;SDS011;51920;53.952;10.292;2024-03-02T12:05:30;20.95;;;11.40;;
65315;SDS011;51920;53.952;10.292;2024-03-02T12:07:59;18.97;;;10.37;;
65315;SDS011;51920;53.952;10.292;2024-03-02T12:10:26;20.85;;;11.20;;
65315;SDS011;51920;53.952;10.292;2024-03-02T12:13:01;19.63;;;10.43;;
65315;SDS011;51920;53.952;10.292;2024-03-02T12:15:34;19.85;;;11.10;;
65315;SDS011;51920;53.952;10.292;2024-03-02T12:18:05;20.30;;;10.75;;
65315;SDS011;51920;53.952;10.292;2024-03-02T12:20:33;19.50;;;10.23;;
65315;SDS011;51920;53.952;10.292;2024-03-02T12:23:01;18.60;;;10.60;;
65315;SDS011;51920;53.952;10.292;2024-03-02T12:25:30;18.88;;;10.25;;
65315;SDS011;51920;53.952;10.292;2024-03-02T12:27:59;18.58;;;9.88;;
65315;SDS011;51920;53.952;10.292;2024-03-02T12:30:29;19.67;;;10.52;;
65315;SDS011;51920;53.952;10.292;2024-03-02T12:32:57;19.53;;;10.03;;
65315;SDS011;51920;53.952;10.292;2024-03-02T12:35:25;20.42;;;10.63;;
65315;SDS011;51920;53.952;10.292;2024-03-02T12:37:52;18.60;;;10.27;;
65315;SDS011;51920;53.952;10.292;2024-03-02T12:40:20;18.52;;;10.68;;
65315;SDS011;51920;53.952;10.292;2024-03-02T12:42:49;19.00;;;10.02;;
65315;SDS011;51920;53.952;10.292;2024-03-02T12:45:17;18.00;;;10.20;;
65315;SDS011;51920;53.952;10.292;2024-03-02T12:47:50;19.25;;;10.45;;
65315;SDS011;51920;53.952;10.292;2024-03-02T12:50:18;17.90;;;9.93;;
65315;SDS011;51920;53.952;10.292;2024-03-02T12:52:55;18.40;;;9.60;;
65315;SDS011;51920;53.952;10.292;2024-03-02T12:55:22;18.05;;;10.05;;
65315;SDS011;51920;53.952;10.292;2024-03-02T12:57:50;17.90;;;10.03;;
65315;SDS011;51920;53.952;10.292;2024-03-02T13:00:19;19.70;;;9.90;;
65315;SDS011;51920;53.952;10.292;2024-03-02T13:02:47;18.50;;;9.68;;
65315;SDS011;51920;53.952;10.292;2024-03-02T13:05:15;18.25;;;9.80;;
65315;SDS011;51920;53.952;10.292;2024-03-02T13:07:42;19.55;;;10.68;;
65315;SDS011;51920;53.952;10.292;2024-03-02T13:10:12;19.00;;;10.47;;
65315;SDS011;51920;53.952;10.292;2024-03-02T13:12:39;19.83;;;9.98;;
65315;SDS011;51920;53.952;10.292;2024-03-02T13:15:06;18.95;;;9.88;;
65315;SDS011;51920;53.952;10.292;2024-03-02T13:17:36;18.02;;;10.05;;
65315;SDS011;51920;53.952;10.292;2024-03-02T13:20:03;19.13;;;10.02;;
65315;SDS011;51920;53.952;10.292;2024-03-02T13:22:37;18.60;;;9.90;;
65315;SDS011;51920;53.952;10.292;2024-03-02T13:25:03;19.02;;;10.05;;
65315;SDS011;51920;53.952;10.292;2024-03-02T13:27:31;18.20;;;10.07;;
65315;SDS011;51920;53.952;10.292;2024-03-02T13:29:59;16.35;;;9.15;;
65315;SDS011;51920;53.952;10.292;2024-03-02T13:32:25;18.75;;;9.38;;
65315;SDS011;51920;53.952;10.292;2024-03-02T13:34:52;18.67;;;9.43;;
65315;SDS011;51920;53.952;10.292;2024-03-02T13:37:20;17.48;;;9.18;;
65315;SDS011;51920;53.952;10.292;2024-03-02T13:39:47;16.45;;;9.07;;
65315;SDS011;51920;53.952;10.292;2024-03-02T13:42:15;17.70;;;9.68;;
65315;SDS011;51920;53.952;10.292;2024-03-02T13:44:43;19.67;;;9.88;;
65315;SDS011;51920;53.952;10.292;2024-03-02T13:47:12;15.87;;;9.23;;
65315;SDS011;51920;53.952;10.292;2024-03-02T13:49:39;17.75;;;9.68;;
65315;SDS011;51920;53.952;10.292;2024-03-02T13:52:12;18.42;;;9.98;;
65315;SDS011;51920;53.952;10.292;2024-03-02T13:54:44;20.33;;;10.13;;
65315;SDS011;51920;53.952;10.292;2024-03-02T13:57:12;17.48;;;9.70;;
65315;SDS011;51920;53.952;10.292;2024-03-02T13:59:40;17.23;;;9.70;;
65315;SDS011;51920;53.952;10.292;2024-03-02T14:02:08;16.98;;;9.65;;
65315;SDS011;51920;53.952;10.292;2024-03-02T14:04:36;18.75;;;10.25;;
65315;SDS011;51920;53.952;10.292;2024-03-02T14:07:03;17.85;;;9.50;;
65315;SDS011;51920;53.952;10.292;2024-03-02T14:09:30;16.15;;;9.40;;
65315;SDS011;51920;53.952;10.292;2024-03-02T14:11:58;17.90;;;8.80;;
65315;SDS011;51920;53.952;10.292;2024-03-02T14:14:27;18.25;;;9.60;;
65315;SDS011;51920;53.952;10.292;2024-03-02T14:16:54;18.05;;;9.52;;
65315;SDS011;51920;53.952;10.292;2024-03-02T14:19:22;14.38;;;8.52;;
65315;SDS011;51920;53.952;10.292;2024-03-02T14:21:49;15.80;;;9.07;;
65315;SDS011;51920;53.952;10.292;2024-03-02T14:24:16;71.27;;;28.60;;
65315;SDS011;51920;53.952;10.292;2024-03-02T14:26:43;21.65;;;10.70;;
65315;SDS011;51920;53.952;10.292;2024-03-02T14:29:11;51.15;;;21.52;;